• Join FlightAware (Why Join?)
  • Login
  • US Flag 
11:15AM EDT


 

Airport Tracker/Info


-or-


 

Live Flight TrackerFlight Track Log ✈ DAL1977 ✈ 27-Apr-2012 ✈ KORD - KATL

Flight Track Log - Related Links

Times and Time Zones

All times are in EDT time to prevent confusion due to time zone crossing. See the DAL1977 flight status page for this flight to view local times or setup timezone preferences in your user account.

Time Position Orientation Groundspeed Altitude Reporting Facility
EDT Latitude Longitude Course Direction KTS MPH feet Rate Location/Type
07:31PM 41.9739 -87.8642 137° Southeast 169 194 2,100  Level Chicago Center
07:32PM 41.9294 -87.8092 161° South 237 273 4,100 1,380 Climbing Chicago Center
07:33PM 41.8622 -87.7775 181° South 270 311 4,900 420 Climbing Chicago Center
07:34PM 41.7936 -87.7792 189° South 270 311 5,000 1,380 Climbing Chicago Center
07:35PM 41.7189 -87.7950 191° South 270 311 7,700 2,700 Climbing Chicago Center
07:36PM 41.6397 -87.8161 191° South 275 316 10,400 2,520 Climbing Chicago Center
07:37PM 41.5567 -87.8375 192° South 299 344 12,800 1,800 Climbing Chicago Center
07:38PM 41.4611 -87.8647 188° South 320 368 14,000 1,800 Climbing Chicago Center
07:39PM 41.3531 -87.8839 183° South 363 418 16,500 1,860 Climbing Chicago Center
07:40PM 41.2406 -87.8919 179° South 390 449 17,800 1,500 Climbing Chicago Center
07:41PM 41.1239 -87.8889 179° South 411 473 19,600 1,620 Climbing Chicago Center
07:42PM 41.0050 -87.8861 179° South 423 487 21,100 1,440 Climbing Chicago Center
07:43PM 40.8819 -87.8833 179° South 434 499 22,500 1,320 Climbing Chicago Center
07:44PM 40.7547 -87.8808 178° South 444 511 23,800 1,200 Climbing Chicago Center
07:46PM 40.4961 -87.8675 180° South 463 533 26,100 1,260 Climbing Chicago Center
07:47PM 40.2706 -87.8667 177° South 488 562 28,700 1,320 Climbing Indianapolis Center
07:48PM 40.1458 -87.8589 178° South 471 542 29,800 1,140 Climbing Indianapolis Center
07:49PM 40.0167 -87.8536 176° South 459 528 31,000 600 Climbing Indianapolis Center
07:50PM 39.8919 -87.8433 178° South 459 528 31,000  Level Indianapolis Center
07:52PM 39.6381 -87.8306 167° South 457 526 31,000  Level Indianapolis Center
07:53PM 39.5186 -87.7939 165° South 457 526 31,000  Level Indianapolis Center
07:54PM 39.3886 -87.7483 165° South 472 543 31,000  Level Indianapolis Center
07:55PM 39.2733 -87.7094 166° South 461 531 31,000  Level Indianapolis Center
07:56PM 39.1456 -87.6672 165° South 467 537 31,000  Level Indianapolis Center
07:57PM 39.0217 -87.6253 165° South 467 537 31,000  Level Indianapolis Center
07:58PM 38.8981 -87.5836 165° South 467 537 31,000  Level Indianapolis Center
07:59PM 38.7764 -87.5422 165° South 467 537 31,000  Level Indianapolis Center
08:00PM 38.6528 -87.5008 165° South 467 537 31,000  Level Indianapolis Center
08:01PM 38.5308 -87.4597 165° South 467 537 31,000  Level Indianapolis Center
08:02PM 38.4092 -87.4186 167° South 462 532 31,000  Level Indianapolis Center
08:03PM 38.2833 -87.3803 165° South 462 532 31,000  Level Indianapolis Center
08:04PM 38.1594 -87.3369 166° South 462 532 31,000  Level Indianapolis Center
08:05PM 38.0336 -87.2961 165° South 468 539 31,000  Level Indianapolis Center
08:06PM 37.9139 -87.2558 165° South 463 533 31,000  Level Indianapolis Center
08:07PM 37.7919 -87.2156 165° South 463 533 31,000  Level Indianapolis Center
08:09PM 37.5336 -87.1272 167° South 459 528 31,000  Level Memphis Center
08:10PM 37.4139 -87.0931 165° South 453 521 31,000  Level Memphis Center
08:11PM 37.2919 -87.0511 165° South 453 521 31,000  Level Memphis Center
08:12PM 37.1700 -87.0094 166° South 453 521 31,000  Level Memphis Center
08:13PM 37.0461 -86.9703 157° South 453 521 31,000  Level Memphis Center
08:14PM 36.9297 -86.9078 155° Southeast 453 521 31,000  Level Memphis Center
08:15PM 36.8258 -86.8475 154° Southeast 459 528 31,000  Level Memphis Center
08:16PM 36.7092 -86.7775 154° Southeast 464 534 31,000  Level Memphis Center
08:17PM 36.5925 -86.7053 155° Southeast 471 542 31,000  Level Memphis Center
08:18PM 36.4633 -86.6311 154° Southeast 471 542 31,000  Level Memphis Center
08:19PM 36.3464 -86.5617 154° Southeast 471 542 31,000  Level Memphis Center
08:20PM 36.2297 -86.4925 155° Southeast 471 542 31,000  Level Memphis Center
08:21PM 36.1150 -86.4261 155° Southeast 466 536 31,000  Level Memphis Center
08:22PM 35.9983 -86.3597 155° Southeast 466 536 31,000  Level Memphis Center
08:24PM 35.7986 -86.2431 155° Southeast 454 522 31,000  Level Atlanta Center
08:25PM 35.6808 -86.1761 155° Southeast 459 528 31,000  Level Atlanta Center
08:26PM 35.5778 -86.1172 155° Southeast 459 528 31,000  Level Atlanta Center
08:27PM 35.4494 -86.0425 155° Southeast 459 528 31,000 -60 Level Atlanta Center
08:28PM 35.3483 -85.9842 155° Southeast 454 522 30,900 -540 Descending Atlanta Center
08:29PM 35.2325 -85.9178 156° South 459 528 30,000 -960 Descending Atlanta Center
08:30PM 35.1144 -85.8542 150° Southeast 459 528 29,000 -900 Descending Atlanta Center
08:31PM 35.0008 -85.7756 146° Southeast 459 528 28,300 -780 Descending Atlanta Center
08:32PM 34.8936 -85.6872 147° Southeast 464 534 27,500 -1,140 Descending Atlanta Center
08:33PM 34.7861 -85.6017 148° Southeast 464 534 26,100 -1,380 Descending Atlanta Center
08:34PM 34.6725 -85.5139 147° Southeast 476 548 24,800 -1,200 Descending Atlanta Center
08:35PM 34.5628 -85.4286 147° Southeast 476 548 23,800 -1,500 Descending Atlanta Center
08:36PM 34.4531 -85.3411 148° Southeast 476 548 21,900 -2,520 Descending Atlanta Center
08:37PM 34.3414 -85.2564 148° Southeast 454 522 18,800 -2,880 Descending Atlanta Center
08:38PM 34.2378 -85.1794 143° Southeast 448 516 16,200 -2,340 Descending Atlanta Center
08:39PM 34.1528 -85.1031 134° Southeast 430 495 14,200 -1,140 Descending Atlanta Center
08:40PM 34.0703 -84.9992 133° Southeast 425 489 14,000 -600 Descending Atlanta Center
08:41PM 33.9917 -84.8981 134° Southeast 413 475 13,100 -960 Descending Atlanta Center
08:42PM 33.9131 -84.7997 134° Southeast 413 475 12,100 -600 Descending Atlanta Center
08:43PM 33.8406 -84.7092 132° Southeast 390 449 12,000 -60 Descending Atlanta Center
08:44PM 33.7833 -84.6333 132° Southeast 280 322 12,000  Level Atlanta TRACON
08:45PM 33.7333 -84.5667 90° East 284 327 12,000 -840 Level Atlanta TRACON
08:46PM 33.7333 -84.4833 90° East 270 311 10,400 -1,860 Descending Atlanta TRACON
08:47PM 33.7333 -84.3833 90° East 273 314 8,300 -1,740 Descending Atlanta TRACON
08:48PM 33.7333 -84.3167 90° East 245 282 7,200 -1,140 Descending Atlanta TRACON
08:49PM 33.7333 -84.2500 90° East 224 258 6,200 -600 Descending Atlanta TRACON
08:50PM 33.7333 -84.1667 151° Southeast 216 249 6,000 -540 Descending Atlanta TRACON
08:51PM 33.6833 -84.1333 220° Southwest 212 244 5,200 -1,020 Descending Atlanta TRACON
08:52PM 33.6500 -84.1667 270° West 184 212 4,100 -600 Descending Atlanta TRACON
08:53PM 33.6500 -84.2167 270° West 181 208 4,000 -540 Descending Atlanta TRACON
08:54PM 33.6500 -84.2833 270° West 173 199 3,100 -900 Descending Atlanta TRACON
08:55PM 33.6500 -84.3333 270° West 146 168 2,200 -840 Descending Atlanta TRACON
08:56PM 33.6500 -84.3833 270° West 140 161 1,500 -780 Descending Atlanta TRACON